createdAt,value
2023-04-18T00:01:39.479Z,9.72
2023-04-18T00:04:18.533Z,9.67
2023-04-18T00:06:51.297Z,9.74
2023-04-18T00:09:27.733Z,9.65
2023-04-18T00:12:05.518Z,9.45
2023-04-18T00:14:44.381Z,9.47
2023-04-18T00:17:19.291Z,9.51
2023-04-18T00:19:53.809Z,9.47
2023-04-18T00:23:14.580Z,9.64
2023-04-18T00:25:50.925Z,9.88
2023-04-18T00:28:22.870Z,9.95
2023-04-18T00:31:06.915Z,9.85
2023-04-18T00:33:41.117Z,9.68
2023-04-18T00:36:15.032Z,9.61
2023-04-18T00:38:47.211Z,9.58
2023-04-18T00:41:21.303Z,9.51
2023-04-18T00:43:59.251Z,9.42
2023-04-18T00:46:38.223Z,9.42
2023-04-18T00:49:16.593Z,9.53
2023-04-18T00:51:49.970Z,9.71
2023-04-18T00:54:22.344Z,9.80
2023-04-18T00:56:59.180Z,9.81
2023-04-18T00:59:31.459Z,9.84
2023-04-18T01:02:07.863Z,9.87
2023-04-18T01:04:39.780Z,9.92
2023-04-18T01:07:12.452Z,9.85
2023-04-18T01:09:47.310Z,9.78
2023-04-18T01:12:19.343Z,9.73
2023-04-18T01:14:52.306Z,9.76
2023-04-18T01:17:27.165Z,9.78
2023-04-18T01:19:59.910Z,9.83
2023-04-18T01:22:35.417Z,9.81
2023-04-18T01:25:14.063Z,9.62
2023-04-18T01:27:46.052Z,9.64
2023-04-18T01:30:18.804Z,9.41
2023-04-18T01:32:53.476Z,9.39
2023-04-18T01:35:26.313Z,9.43
2023-04-18T01:37:59.441Z,9.52
2023-04-18T01:40:34.020Z,9.48
2023-04-18T01:43:06.156Z,9.66
2023-04-18T01:45:42.190Z,9.62
2023-04-18T01:48:17.391Z,9.55
2023-04-18T01:50:52.090Z,9.51
2023-04-18T01:53:22.285Z,9.42
2023-04-18T01:55:54.888Z,9.37
2023-04-18T01:58:27.490Z,9.29
2023-04-18T02:01:02.185Z,9.30
2023-04-18T02:03:32.436Z,9.43
2023-04-18T02:06:04.814Z,9.49
2023-04-18T02:08:38.774Z,9.46
2023-04-18T02:11:15.116Z,9.28
2023-04-18T02:13:47.034Z,9.24
2023-04-18T02:19:33.407Z,9.42
2023-04-18T02:22:09.735Z,9.42
2023-04-18T02:24:48.781Z,9.58
2023-04-18T02:27:23.854Z,9.72
2023-04-18T02:29:55.742Z,9.58
2023-04-18T02:32:29.551Z,9.40
2023-04-18T02:35:04.297Z,9.46
2023-04-18T02:37:34.213Z,9.42
2023-04-18T02:40:07.689Z,9.42
2023-04-18T02:42:42.523Z,9.34
2023-04-18T02:45:14.823Z,9.23
2023-04-18T02:47:54.362Z,9.24
2023-04-18T02:50:33.751Z,9.24
2023-04-18T02:53:05.759Z,9.34
2023-04-18T02:55:37.400Z,9.36
2023-04-18T02:58:13.703Z,9.29
2023-04-18T03:00:45.712Z,9.11
2023-04-18T03:03:20.229Z,9.21
2023-04-18T03:05:55.055Z,9.35
2023-04-18T03:08:30.112Z,9.23
2023-04-18T03:11:02.623Z,9.24
2023-04-18T03:13:35.807Z,9.31
2023-04-18T03:16:08.432Z,9.45
2023-04-18T03:18:40.616Z,9.52
2023-04-18T03:21:12.351Z,9.54
2023-04-18T03:23:46.756Z,9.45
2023-04-18T03:26:18.852Z,9.61
2023-04-18T03:28:55.332Z,9.74
2023-04-18T03:31:27.251Z,9.69
2023-04-18T03:33:59.029Z,9.63
2023-04-18T03:36:31.698Z,9.49
2023-04-18T03:39:03.583Z,9.53
2023-04-18T03:41:35.333Z,9.52
2023-04-18T03:44:35.234Z,9.49
2023-04-18T03:47:50.598Z,9.45
2023-04-18T03:54:39.905Z,9.35
2023-04-18T03:58:14.843Z,9.40
2023-04-18T04:00:46.886Z,9.56
2023-04-18T04:03:18.773Z,9.52
2023-04-18T04:05:50.664Z,9.55
2023-04-18T04:08:28.176Z,9.47
2023-04-18T04:11:00.577Z,9.38
2023-04-18T04:13:33.852Z,9.26
2023-04-18T04:16:38.297Z,9.30
2023-04-18T04:19:10.376Z,9.45
2023-04-18T04:21:42.422Z,9.58
2023-04-18T04:24:14.305Z,9.42
2023-04-18T04:26:50.410Z,9.28
2023-04-18T04:29:24.217Z,9.34
2023-04-18T04:31:56.943Z,9.36
2023-04-18T04:34:28.975Z,9.30
2023-04-18T04:37:01.889Z,9.29
2023-04-18T04:39:37.368Z,9.42
2023-04-18T04:42:10.306Z,9.52
2023-04-18T04:44:43.287Z,9.49
2023-04-18T04:47:21.204Z,9.40
2023-04-18T04:49:53.184Z,9.26
2023-04-18T04:52:30.462Z,9.31
2023-04-18T04:55:02.796Z,9.45
2023-04-18T04:57:34.750Z,9.52
2023-04-18T05:00:11.083Z,9.60
2023-04-18T05:02:44.546Z,9.52
2023-04-18T05:05:17.610Z,9.46
2023-04-18T05:07:49.665Z,9.39
2023-04-18T05:10:21.451Z,9.34
2023-04-18T05:12:53.161Z,9.36
2023-04-18T05:15:30.818Z,9.40
2023-04-18T05:18:02.525Z,9.35
2023-04-18T05:20:34.433Z,9.50
2023-04-18T05:23:06.329Z,9.58
2023-04-18T05:25:39.009Z,9.65
2023-04-18T05:28:10.922Z,9.90
2023-04-18T05:30:42.997Z,9.95
2023-04-18T05:33:14.691Z,9.83
2023-04-18T05:35:46.279Z,9.76
2023-04-18T05:38:17.616Z,9.76
2023-04-18T05:40:51.312Z,9.75
2023-04-18T05:43:22.730Z,9.62
2023-04-18T05:45:55.800Z,9.60
2023-04-18T05:48:28.565Z,9.65
2023-04-18T05:51:00.919Z,9.81
2023-04-18T05:53:32.355Z,9.87
2023-04-18T05:56:03.929Z,9.98
2023-04-18T05:58:35.444Z,10.01
2023-04-18T06:01:07.218Z,9.98
2023-04-18T06:03:38.824Z,9.91
2023-04-18T06:06:10.942Z,10.00
2023-04-18T06:08:42.727Z,10.06
2023-04-18T06:11:15.317Z,10.05
2023-04-18T06:13:46.643Z,10.09
2023-04-18T06:16:18.463Z,10.14
2023-04-18T06:18:49.902Z,9.99
2023-04-18T06:21:21.797Z,10.00
2023-04-18T06:23:53.286Z,10.01
2023-04-18T06:26:26.158Z,9.96
2023-04-18T06:28:57.512Z,9.99
2023-04-18T06:31:29.372Z,10.09
2023-04-18T06:34:00.683Z,10.09
2023-04-18T06:36:32.194Z,10.22
2023-04-18T06:39:04.097Z,10.16
2023-04-18T06:41:36.117Z,10.22
2023-04-18T06:44:07.768Z,10.28
2023-04-18T06:46:39.218Z,10.30
2023-04-18T06:49:11.328Z,10.51
2023-04-18T06:51:42.686Z,10.53
2023-04-18T06:54:14.337Z,10.43
2023-04-18T06:56:49.614Z,10.47
2023-04-18T06:59:22.036Z,10.47
2023-04-18T07:01:55.048Z,10.48
2023-04-18T07:04:26.604Z,10.54
2023-04-18T07:07:10.995Z,10.53
2023-04-18T07:09:43.088Z,10.64
2023-04-18T07:12:14.775Z,10.70
2023-04-18T07:14:46.524Z,10.72
2023-04-18T07:17:18.092Z,10.76
2023-04-18T07:19:49.685Z,10.73
2023-04-18T07:22:21.173Z,10.86
2023-04-18T07:24:52.936Z,11.01
2023-04-18T07:27:24.485Z,11.14
2023-04-18T07:29:56.080Z,11.24
2023-04-18T07:32:28.057Z,11.32
2023-04-18T07:34:59.648Z,11.33
2023-04-18T07:37:31.286Z,11.32
2023-04-18T07:40:02.950Z,11.18
2023-04-18T07:42:34.580Z,11.13
2023-04-18T07:45:07.589Z,11.10
2023-04-18T07:47:39.345Z,11.11
2023-04-18T07:50:12.720Z,11.30
2023-04-18T07:52:48.196Z,11.33
2023-04-18T07:55:19.941Z,11.41
2023-04-18T07:57:51.952Z,11.55
2023-04-18T08:00:24.137Z,11.70
2023-04-18T08:02:55.832Z,11.62
2023-04-18T08:05:27.976Z,11.55
2023-04-18T08:07:59.432Z,11.46
2023-04-18T08:10:31.425Z,11.43
2023-04-18T08:13:03.133Z,11.49
2023-04-18T08:15:34.534Z,11.54
2023-04-18T08:18:06.273Z,11.55
2023-04-18T08:20:37.837Z,11.56
2023-04-18T08:23:11.426Z,11.63
2023-04-18T08:25:44.391Z,11.96
2023-04-18T08:28:16.003Z,11.99
2023-04-18T08:30:49.581Z,12.00
2023-04-18T08:33:21.692Z,12.09
2023-04-18T08:35:53.979Z,12.02
2023-04-18T08:38:26.224Z,11.95
2023-04-18T08:40:57.904Z,12.03
2023-04-18T08:43:31.415Z,12.15
2023-04-18T08:46:03.203Z,12.25
2023-04-18T08:48:34.887Z,12.53
2023-04-18T08:51:08.225Z,12.67
2023-04-18T08:53:42.605Z,12.48
2023-04-18T08:56:17.979Z,12.44
2023-04-18T08:58:51.253Z,12.55
2023-04-18T09:01:23.472Z,12.56
2023-04-18T09:03:58.663Z,12.52
2023-04-18T09:06:31.260Z,12.48
2023-04-18T09:09:04.792Z,12.80
2023-04-18T09:11:39.582Z,12.93
2023-04-18T09:14:58.878Z,13.03
2023-04-18T09:17:42.275Z,13.13
2023-04-18T09:20:31.136Z,13.16
2023-04-18T09:23:05.512Z,13.23
2023-04-18T09:25:43.307Z,13.28
2023-04-18T09:28:36.602Z,13.44
2023-04-18T09:31:19.036Z,13.49
2023-04-18T09:34:52.675Z,13.57
2023-04-18T09:38:05.295Z,13.53
2023-04-18T09:40:38.594Z,13.63
2023-04-18T09:43:31.800Z,13.73
2023-04-18T09:46:15.422Z,13.74
2023-04-18T09:49:03.072Z,13.76
2023-04-18T09:51:38.411Z,13.86
2023-04-18T09:54:18.985Z,13.93
2023-04-18T09:56:54.026Z,14.03
2023-04-18T09:59:43.385Z,14.07
2023-04-18T10:02:22.452Z,14.20
2023-04-18T10:04:57.993Z,14.26
2023-04-18T10:07:33.278Z,14.22
2023-04-18T10:10:05.640Z,14.29
2023-04-18T10:12:38.280Z,14.45
2023-04-18T10:15:12.989Z,14.50
2023-04-18T10:18:00.275Z,14.41
2023-04-18T10:20:38.300Z,14.41
2023-04-18T10:23:40.727Z,14.39
2023-04-18T10:26:14.398Z,14.52
2023-04-18T10:28:59.036Z,14.37
2023-04-18T10:31:41.885Z,14.25
2023-04-18T10:34:18.707Z,14.37
2023-04-18T10:37:07.354Z,14.37
2023-04-18T10:39:57.998Z,14.46
2023-04-18T10:43:02.972Z,14.41
2023-04-18T10:45:36.874Z,14.27
2023-04-18T10:48:30.542Z,14.39
2023-04-18T10:51:19.756Z,14.45
2023-04-18T10:53:58.010Z,14.34
2023-04-18T10:56:32.998Z,14.54
2023-04-18T10:59:08.805Z,14.67
2023-04-18T11:01:48.485Z,14.75
2023-04-18T11:04:21.209Z,14.96
2023-04-18T11:06:56.465Z,15.02
2023-04-18T11:09:28.125Z,15.07
2023-04-18T11:12:12.432Z,15.05
2023-04-18T11:14:46.784Z,15.07
2023-04-18T11:17:25.002Z,15.25
2023-04-18T11:20:19.451Z,15.43
2023-04-18T11:22:52.880Z,15.57
2023-04-18T11:25:29.617Z,15.71
2023-04-18T11:28:05.835Z,15.75
2023-04-18T11:30:43.279Z,15.67
2023-04-18T11:33:17.415Z,15.99
2023-04-18T11:35:50.145Z,16.19
2023-04-18T11:38:23.892Z,16.32
2023-04-18T11:40:56.870Z,16.32
2023-04-18T11:43:30.236Z,16.19
2023-04-18T11:46:02.897Z,16.08
2023-04-18T11:48:39.684Z,15.92
2023-04-18T11:51:36.220Z,15.89
2023-04-18T11:54:28.522Z,15.88
2023-04-18T11:57:00.781Z,15.90
2023-04-18T11:59:33.806Z,15.98
2023-04-18T12:04:58.309Z,16.32
2023-04-18T12:07:38.949Z,16.47
2023-04-18T12:10:25.686Z,16.46
2023-04-18T12:13:00.437Z,16.31
2023-04-18T12:15:34.073Z,16.30
2023-04-18T12:18:12.248Z,16.44
2023-04-18T12:20:54.748Z,16.53
2023-04-18T12:23:46.653Z,16.68
2023-04-18T12:26:33.918Z,16.58
2023-04-18T12:29:09.360Z,16.39
2023-04-18T12:31:44.033Z,16.23
2023-04-18T12:34:19.119Z,16.11
2023-04-18T12:36:57.392Z,16.13
2023-04-18T12:39:29.417Z,16.08
2023-04-18T12:42:11.846Z,16.10
2023-04-18T12:44:51.841Z,16.25
2023-04-18T12:47:33.282Z,16.26
2023-04-18T12:50:16.078Z,16.55
2023-04-18T12:52:51.426Z,16.64
2023-04-18T12:55:25.035Z,16.49
2023-04-18T12:58:03.364Z,16.41
2023-04-18T13:00:38.496Z,16.43
2023-04-18T13:03:13.081Z,16.38
2023-04-18T13:05:47.696Z,16.22
2023-04-18T13:08:20.103Z,16.21
2023-04-18T13:10:54.073Z,16.24
2023-04-18T13:13:28.732Z,16.23
2023-04-18T13:16:01.431Z,16.22
2023-04-18T13:18:33.386Z,16.25
2023-04-18T13:21:12.047Z,16.20
2023-04-18T13:23:44.520Z,16.18
2023-04-18T13:26:16.546Z,16.25
2023-04-18T13:28:48.690Z,16.17
2023-04-18T13:31:22.888Z,16.16
2023-04-18T13:33:54.854Z,16.24
2023-04-18T13:36:28.244Z,16.25
2023-04-18T13:39:01.196Z,16.07
2023-04-18T13:41:33.613Z,15.84
2023-04-18T13:44:06.080Z,15.78
2023-04-18T13:46:38.544Z,15.77
2023-04-18T13:49:10.345Z,15.64
2023-04-18T13:51:53.537Z,15.70
2023-04-18T13:54:27.027Z,15.68
2023-04-18T13:57:01.320Z,15.65
2023-04-18T13:59:34.250Z,15.73
2023-04-18T14:02:06.368Z,15.73
2023-04-18T14:04:39.736Z,15.66
2023-04-18T14:07:11.558Z,15.62
2023-04-18T14:09:44.449Z,15.78
2023-04-18T14:12:19.514Z,15.88
2023-04-18T14:14:51.338Z,16.00
2023-04-18T14:17:25.482Z,16.06
2023-04-18T14:20:09.673Z,16.06
2023-04-18T14:22:41.441Z,16.06
2023-04-18T14:25:14.825Z,15.98
2023-04-18T14:27:48.559Z,15.94
2023-04-18T14:30:20.609Z,15.85
2023-04-18T14:32:53.103Z,15.77
2023-04-18T14:35:24.911Z,15.76
2023-04-18T14:37:57.178Z,15.84
2023-04-18T14:40:33.899Z,15.89
2023-04-18T14:43:12.391Z,15.77
2023-04-18T14:45:44.209Z,15.93
2023-04-18T14:48:16.165Z,15.91
2023-04-18T14:50:47.926Z,15.81
2023-04-18T14:53:24.782Z,15.91
2023-04-18T14:55:57.138Z,16.09
2023-04-18T14:58:42.804Z,16.29
2023-04-18T15:01:20.131Z,16.44
2023-04-18T15:04:01.312Z,16.40
2023-04-18T15:10:25.438Z,16.33
2023-04-18T15:13:13.709Z,16.49
2023-04-18T15:15:54.261Z,16.47
2023-04-18T15:19:36.795Z,16.57
2023-04-18T15:22:31.977Z,16.47
2023-04-18T15:25:42.077Z,16.36
2023-04-18T15:28:43.101Z,16.42
2023-04-18T15:31:40.927Z,16.37
2023-04-18T15:34:21.895Z,16.38
2023-04-18T15:37:17.270Z,16.48
2023-04-18T15:39:55.570Z,16.48
2023-04-18T15:42:37.383Z,16.48
2023-04-18T15:45:18.234Z,16.53
2023-04-18T15:47:55.455Z,16.58
2023-04-18T15:50:33.382Z,16.45
2023-04-18T15:53:19.278Z,16.35
2023-04-18T15:56:14.749Z,16.34
2023-04-18T15:59:03.154Z,16.29
2023-04-18T16:01:46.285Z,16.32
2023-04-18T16:04:26.943Z,16.30
2023-04-18T16:07:09.536Z,16.35
2023-04-18T16:09:42.724Z,16.21
2023-04-18T16:12:17.109Z,16.25
2023-04-18T16:14:51.006Z,16.17
2023-04-18T16:17:26.089Z,16.23
2023-04-18T16:19:58.250Z,16.25
2023-04-18T16:22:33.007Z,16.31
2023-04-18T16:25:08.793Z,16.47
2023-04-18T16:27:42.976Z,16.43
2023-04-18T16:30:18.997Z,16.22
2023-04-18T16:33:03.138Z,16.21
2023-04-18T16:35:38.999Z,16.12
2023-04-18T16:38:17.018Z,16.17
2023-04-18T16:40:59.225Z,16.18
2023-04-18T16:43:34.722Z,16.24
2023-04-18T16:46:12.017Z,16.31
2023-04-18T16:48:45.580Z,16.27
2023-04-18T16:51:18.461Z,16.10
2023-04-18T16:53:52.236Z,16.05
2023-04-18T16:56:47.434Z,15.88
2023-04-18T16:59:28.851Z,15.77
2023-04-18T17:02:12.350Z,15.64
2023-04-18T17:04:54.840Z,15.72
2023-04-18T17:07:36.054Z,15.74
2023-04-18T17:10:28.407Z,15.75
2023-04-18T17:13:16.516Z,15.88
2023-04-18T17:15:50.454Z,15.78
2023-04-18T17:18:25.530Z,15.61
2023-04-18T17:21:01.299Z,15.60
2023-04-18T17:23:34.880Z,15.54
2023-04-18T17:26:08.335Z,15.55
2023-04-18T17:28:41.079Z,15.45
2023-04-18T17:31:17.241Z,15.44
2023-04-18T17:34:29.532Z,15.49
2023-04-18T17:38:53.799Z,15.44
2023-04-18T17:41:17.596Z,15.48
2023-04-18T17:43:53.875Z,15.55
2023-04-18T17:46:30.967Z,15.50
2023-04-18T17:49:03.280Z,15.51
2023-04-18T17:51:35.267Z,15.53
2023-04-18T17:54:10.163Z,15.54
2023-04-18T17:56:48.620Z,15.68
2023-04-18T17:59:25.036Z,15.66
2023-04-18T18:02:04.755Z,15.44
2023-04-18T18:04:46.320Z,15.30
2023-04-18T18:07:24.140Z,15.30
2023-04-18T18:13:03.815Z,15.20
2023-04-18T18:15:50.997Z,15.07
2023-04-18T18:18:25.059Z,15.18
2023-04-18T18:20:58.122Z,15.24
2023-04-18T18:23:33.597Z,15.44
2023-04-18T18:26:14.066Z,15.38
2023-04-18T18:28:54.091Z,15.33
2023-04-18T18:31:34.047Z,15.24
2023-04-18T18:34:21.172Z,15.17
2023-04-18T18:36:59.509Z,15.22
2023-04-18T18:39:48.162Z,15.15
2023-04-18T18:42:24.174Z,15.04
2023-04-18T18:44:59.911Z,14.85
2023-04-18T18:47:40.001Z,14.73
2023-04-18T18:53:04.019Z,14.89
2023-04-18T18:55:48.703Z,14.88
2023-04-18T18:58:25.671Z,14.90
2023-04-18T19:01:05.066Z,14.76
2023-04-18T19:03:44.379Z,14.62
2023-04-18T19:06:18.447Z,14.55
2023-04-18T19:08:53.423Z,14.56
2023-04-18T19:11:33.333Z,14.59
2023-04-18T19:14:09.572Z,14.50
2023-04-18T19:16:43.360Z,14.61
2023-04-18T19:19:21.435Z,14.69
2023-04-18T19:21:53.912Z,14.59
2023-04-18T19:24:30.597Z,14.57
2023-04-18T19:27:06.133Z,14.58
2023-04-18T19:29:40.536Z,14.54
2023-04-18T19:32:18.241Z,14.46
2023-04-18T19:34:54.407Z,14.59
2023-04-18T19:37:26.941Z,14.68
2023-04-18T19:40:07.858Z,14.66
2023-04-18T19:42:41.563Z,14.48
2023-04-18T19:45:17.018Z,14.36
2023-04-18T19:47:53.131Z,14.44
2023-04-18T19:50:27.180Z,14.33
2023-04-18T19:53:17.153Z,14.29
2023-04-18T19:55:50.823Z,14.14
2023-04-18T19:58:46.300Z,14.10
2023-04-18T20:01:24.372Z,14.15
2023-04-18T20:03:59.742Z,14.13
2023-04-18T20:06:34.148Z,14.16
2023-04-18T20:09:11.982Z,14.13
2023-04-18T20:11:47.341Z,14.04
2023-04-18T20:14:27.671Z,14.10
2023-04-18T20:17:10.504Z,14.09
2023-04-18T20:19:51.595Z,14.06
2023-04-18T20:22:28.081Z,14.04
2023-04-18T20:25:18.582Z,14.03
2023-04-18T20:28:02.374Z,14.09
2023-04-18T20:30:37.122Z,14.04
2023-04-18T20:33:10.065Z,14.06
2023-04-18T20:35:45.263Z,14.00
2023-04-18T20:38:18.674Z,13.81
2023-04-18T20:41:02.283Z,13.61
2023-04-18T20:43:41.072Z,13.61
2023-04-18T20:46:19.220Z,13.69
2023-04-18T20:49:10.301Z,13.56
2023-04-18T20:51:43.489Z,13.50
2023-04-18T20:54:16.107Z,13.52
2023-04-18T20:56:48.139Z,13.43
2023-04-18T20:59:25.052Z,13.39
2023-04-18T21:02:01.382Z,13.44
2023-04-18T21:04:33.443Z,13.46
2023-04-18T21:07:07.890Z,13.24
2023-04-18T21:09:42.497Z,13.02
2023-04-18T21:12:12.342Z,12.87
2023-04-18T21:14:43.951Z,12.77
2023-04-18T21:17:17.717Z,12.67
2023-04-18T21:19:50.380Z,12.84
2023-04-18T21:22:24.470Z,12.84
2023-04-18T21:24:57.496Z,12.84
2023-04-18T21:27:30.706Z,12.70
2023-04-18T21:30:07.257Z,12.81
2023-04-18T21:32:41.072Z,12.82
2023-04-18T21:35:14.208Z,12.81
2023-04-18T21:37:46.046Z,12.94
2023-04-18T21:40:19.322Z,12.99
2023-04-18T21:42:53.076Z,13.08
2023-04-18T21:45:26.377Z,12.96
2023-04-18T21:47:59.578Z,12.77
2023-04-18T21:50:31.680Z,12.78
2023-04-18T21:53:03.699Z,12.62
2023-04-18T21:55:35.953Z,12.41
2023-04-18T21:58:07.633Z,12.49
2023-04-18T22:00:39.163Z,12.49
2023-04-18T22:03:11.513Z,12.43
2023-04-18T22:05:44.444Z,12.49
2023-04-18T22:08:16.478Z,12.45
2023-04-18T22:10:50.761Z,12.38
2023-04-18T22:13:22.572Z,12.34
2023-04-18T22:15:56.556Z,12.43
2023-04-18T22:18:33.881Z,12.63
2023-04-18T22:21:08.087Z,12.55
2023-04-18T22:23:39.710Z,12.41
2023-04-18T22:26:11.428Z,12.25
2023-04-18T22:28:43.566Z,12.17
2023-04-18T22:31:16.446Z,12.12
2023-04-18T22:33:49.048Z,12.28
2023-04-18T22:36:20.570Z,12.33
2023-04-18T22:38:52.903Z,12.20
2023-04-18T22:41:24.670Z,12.06
2023-04-18T22:43:56.834Z,12.08
2023-04-18T22:46:28.349Z,12.02
2023-04-18T22:48:59.902Z,12.10
2023-04-18T22:51:32.211Z,12.02
2023-04-18T22:54:03.717Z,11.98
2023-04-18T22:56:38.033Z,11.99
2023-04-18T22:59:09.558Z,11.94
2023-04-18T23:01:42.319Z,11.74
2023-04-18T23:04:20.173Z,11.72
2023-04-18T23:06:51.847Z,11.69
2023-04-18T23:09:23.450Z,11.75
2023-04-18T23:11:54.890Z,11.83
2023-04-18T23:14:26.316Z,11.71
2023-04-18T23:16:57.772Z,11.76
2023-04-18T23:19:29.442Z,11.71
2023-04-18T23:22:01.172Z,11.64
2023-04-18T23:24:34.927Z,11.68
2023-04-18T23:27:11.652Z,11.78
2023-04-18T23:29:43.744Z,11.60
2023-04-18T23:32:15.171Z,11.46
2023-04-18T23:34:48.313Z,11.45
2023-04-18T23:37:19.796Z,11.38
2023-04-18T23:39:54.615Z,11.31
2023-04-18T23:42:26.464Z,11.39
2023-04-18T23:44:59.190Z,11.42
2023-04-18T23:47:33.168Z,11.38
2023-04-18T23:50:04.992Z,11.39
2023-04-18T23:52:38.960Z,11.33
2023-04-18T23:55:12.013Z,11.44
2023-04-18T23:57:47.303Z,11.35
